Time;durP1;ratioP1;P1;durP2;ratioP2;P2;SDS_P1;SDS_P2;PMS_P1;PMS_P2;Temp;Humidity;BMP_temperature;BMP_pressure;BME280_temperature;BME280_humidity;BME280_pressure;Samples;Min_cycle;Max_cycle;Signal;HPM_P1;HPM_P2
2022/10/28 00:00:00;;;;;;;8.23;4.43;;;19.30;99.90;;;;;;5093086;28;20834;-38
2022/10/28 00:02:26;;;;;;;10.47;4.00;;;19.40;99.90;;;;;;5093189;28;20184;-38
2022/10/28 00:04:51;;;;;;;9.03;4.30;;;19.40;99.90;;;;;;5093224;28;20187;-38
2022/10/28 00:07:17;;;;;;;6.60;4.70;;;19.40;99.90;;;;;;5093175;28;20224;-39
2022/10/28 00:09:43;;;;;;;10.10;4.17;;;19.40;99.90;;;;;;5092522;28;20250;-38
2022/10/28 00:12:08;;;;;;;8.20;4.23;;;19.40;99.90;;;;;;5093176;28;20212;-38
2022/10/28 00:14:34;;;;;;;8.33;4.63;;;19.40;99.90;;;;;;5092734;28;20184;-39
2022/10/28 00:16:59;;;;;;;7.60;4.30;;;19.40;99.90;;;;;;5093226;28;20181;-39
2022/10/28 00:19:25;;;;;;;8.73;4.10;;;19.30;99.90;;;;;;5092586;28;20191;-39
2022/10/28 00:21:51;;;;;;;5.93;4.13;;;19.20;99.90;;;;;;5093032;28;20199;-42
2022/10/28 00:24:16;;;;;;;11.80;4.83;;;19.20;99.90;;;;;;5092465;28;20191;-39
2022/10/28 00:26:42;;;;;;;8.37;4.00;;;19.30;99.90;;;;;;5093036;28;20195;-39
2022/10/28 00:29:11;;;;;;;9.00;4.13;;;19.30;99.90;;;;;;5092439;28;20184;-39
2022/10/28 00:31:37;;;;;;;10.50;3.83;;;19.30;99.90;;;;;;5092910;28;20461;-38
2022/10/28 00:34:05;;;;;;;8.93;4.20;;;19.30;99.90;;;;;;5092509;28;20613;-40
2022/10/28 00:36:34;;;;;;;6.80;3.73;;;19.20;99.90;;;;;;5092641;28;20417;-38
2022/10/28 00:39:01;;;;;;;10.50;3.60;;;19.30;99.90;;;;;;5092120;28;20821;-39
2022/10/28 00:41:33;;;;;;;5.27;4.10;;;19.20;99.90;;;;;;5092629;28;20450;-40
2022/10/28 00:44:18;;;;;;;13.03;4.10;;;19.30;99.90;;;;;;5092436;28;20406;-39
2022/10/28 00:46:48;;;;;;;10.80;4.10;;;19.20;99.90;;;;;;5092591;28;20810;-38
2022/10/28 00:49:31;;;;;;;7.50;3.87;;;19.30;99.90;;;;;;5091693;28;20398;-38
2022/10/28 00:52:07;;;;;;;7.50;3.67;;;19.30;99.90;;;;;;5092438;28;20458;-40
2022/10/28 00:54:34;;;;;;;9.90;5.23;;;19.30;99.90;;;;;;5091619;28;20607;-38
2022/10/28 00:57:02;;;;;;;8.70;3.90;;;19.30;99.90;;;;;;5090881;28;20430;-40
2022/10/28 00:59:35;;;;;;;8.47;4.30;;;19.30;99.90;;;;;;5091716;28;20862;-38
2022/10/28 01:02:00;;;;;;;6.57;3.70;;;19.30;99.90;;;;;;5092439;28;20407;-38
2022/10/28 01:04:27;;;;;;;11.30;4.80;;;19.30;99.90;;;;;;5091859;28;20407;-38
2022/10/28 01:06:54;;;;;;;8.43;3.83;;;19.30;99.90;;;;;;5091874;28;20197;-39
2022/10/28 01:09:19;;;;;;;8.33;3.43;;;19.30;99.90;;;;;;5091617;28;20919;-38
2022/10/28 01:11:59;;;;;;;8.43;4.33;;;19.30;99.90;;;;;;5091823;28;20545;-38
2022/10/28 01:14:49;;;;;;;8.13;4.13;;;19.30;99.90;;;;;;5091773;28;20393;-38
2022/10/28 01:17:54;;;;;;;7.53;3.77;;;19.30;99.90;;;;;;5091880;28;20468;-37
2022/10/28 01:21:00;;;;;;;11.47;4.53;;;19.30;99.90;;;;;;5049139;28;20488;-39
2022/10/28 01:23:37;;;;;;;8.63;3.80;;;19.30;99.90;;;;;;5055060;28;20953;-38
2022/10/28 01:26:23;;;;;;;13.00;3.87;;;19.30;99.90;;;;;;5091844;28;20892;-38
2022/10/28 01:29:13;;;;;;;11.50;4.47;;;19.30;99.90;;;;;;5090746;28;20414;-38
2022/10/28 01:31:56;;;;;;;10.13;3.57;;;19.30;99.90;;;;;;5091560;28;20518;-38
2022/10/28 01:34:43;;;;;;;7.40;4.00;;;19.40;99.90;;;;;;5091361;28;20849;-38
2022/10/28 01:37:25;;;;;;;8.83;3.20;;;19.40;99.90;;;;;;5091300;28;20406;-38
2022/10/28 01:40:01;;;;;;;7.27;3.73;;;19.40;99.90;;;;;;5091356;28;20934;-38
2022/10/28 01:43:08;;;;;;;9.37;3.87;;;19.50;99.90;;;;;;5091181;28;20483;-38
2022/10/28 01:45:54;;;;;;;8.70;4.23;;;19.50;99.90;;;;;;5048220;28;20426;-37
2022/10/28 01:48:29;;;;;;;9.33;4.20;;;19.50;99.90;;;;;;5033783;28;20469;-38
2022/10/28 01:51:07;;;;;;;8.87;3.80;;;19.50;99.90;;;;;;5076631;28;20445;-38
2022/10/28 01:53:38;;;;;;;7.03;4.00;;;19.60;99.90;;;;;;5090901;28;20422;-40
2022/10/28 01:56:08;;;;;;;8.20;3.97;;;19.60;99.90;;;;;;5089851;28;20421;-38
2022/10/28 01:58:36;;;;;;;10.73;3.83;;;19.60;99.90;;;;;;5090724;28;20749;-37
2022/10/28 02:01:05;;;;;;;5.30;3.20;;;19.60;99.90;;;;;;5091216;28;20983;-40
2022/10/28 02:03:31;;;;;;;7.83;3.80;;;19.60;99.90;;;;;;5090790;28;20414;-38
2022/10/28 02:05:58;;;;;;;9.90;4.83;;;19.70;99.90;;;;;;5090525;28;20430;-40
2022/10/28 02:08:36;;;;;;;13.13;3.90;;;19.70;99.90;;;;;;5090249;28;20411;-38
2022/10/28 02:11:20;;;;;;;12.93;4.23;;;19.70;99.90;;;;;;5090904;28;20453;-38
2022/10/28 02:14:04;;;;;;;5.67;3.63;;;19.70;99.90;;;;;;5090572;28;20571;-37
2022/10/28 02:16:30;;;;;;;12.13;3.50;;;19.70;99.90;;;;;;5090776;28;20409;-38
2022/10/28 02:19:33;;;;;;;7.00;3.70;;;19.70;99.90;;;;;;5090333;28;20479;-38
2022/10/28 02:22:25;;;;;;;11.23;4.27;;;19.70;99.90;;;;;;5090837;28;20794;-38
2022/10/28 02:25:06;;;;;;;8.50;4.10;;;19.60;99.90;;;;;;5090416;28;20417;-38
2022/10/28 02:27:43;;;;;;;8.93;3.70;;;19.70;99.90;;;;;;5090689;28;20410;-38
2022/10/28 02:30:20;;;;;;;5.20;3.67;;;19.70;99.90;;;;;;5090227;28;20479;-38
2022/10/28 02:32:51;;;;;;;10.17;3.70;;;19.70;99.90;;;;;;5090337;28;20971;-38
2022/10/28 02:35:23;;;;;;;5.00;3.77;;;19.70;99.90;;;;;;5090222;28;20895;-38
2022/10/28 02:37:51;;;;;;;9.10;4.50;;;19.70;99.90;;;;;;5090547;28;20398;-41
2022/10/28 02:40:25;;;;;;;9.47;3.57;;;19.60;99.90;;;;;;5089830;28;20403;-40
2022/10/28 02:43:01;;;;;;;9.10;4.10;;;19.60;99.90;;;;;;5090201;28;20418;-38
2022/10/28 02:45:35;;;;;;;9.07;3.73;;;19.60;99.90;;;;;;5090245;28;20484;-38
2022/10/28 02:48:06;;;;;;;10.53;4.03;;;19.60;99.90;;;;;;5090238;28;20889;-38
2022/10/28 02:50:36;;;;;;;10.10;4.07;;;19.60;99.90;;;;;;5089809;28;20928;-39
2022/10/28 02:53:09;;;;;;;6.23;3.63;;;19.60;99.90;;;;;;5090025;28;20455;-38
2022/10/28 02:55:40;;;;;;;9.20;3.73;;;19.50;99.90;;;;;;5088644;28;20804;-38
2022/10/28 02:58:06;;;;;;;6.57;3.50;;;19.60;99.90;;;;;;5090324;28;20501;-38
2022/10/28 03:00:32;;;;;;;6.57;3.77;;;19.60;99.90;;;;;;5089442;28;20410;-38
2022/10/28 03:02:58;;;;;;;7.17;3.20;;;19.60;99.90;;;;;;5089952;28;20426;-39
2022/10/28 03:05:23;;;;;;;11.00;3.80;;;19.60;99.90;;;;;;5089872;28;20204;-39
2022/10/28 03:07:49;;;;;;;7.50;3.80;;;19.60;99.90;;;;;;5090084;28;20208;-38
2022/10/28 03:10:16;;;;;;;8.70;3.90;;;19.60;99.90;;;;;;5089577;28;20184;-37
2022/10/28 03:12:41;;;;;;;6.70;3.70;;;19.50;99.90;;;;;;5089723;28;20205;-38
2022/10/28 03:15:07;;;;;;;11.93;3.90;;;19.50;99.90;;;;;;5089812;28;20417;-38
2022/10/28 03:17:33;;;;;;;7.53;4.10;;;19.60;99.90;;;;;;5089972;28;20196;-39
2022/10/28 03:19:59;;;;;;;10.43;3.70;;;19.50;99.90;;;;;;5091470;28;20795;-38
2022/10/28 03:22:24;;;;;;;8.10;4.30;;;19.50;99.90;;;;;;5093924;28;20183;-38
2022/10/28 03:24:50;;;;;;;7.23;3.83;;;19.50;99.90;;;;;;5094002;28;20180;-38
2022/10/28 03:27:16;;;;;;;7.30;4.27;;;19.50;99.90;;;;;;5094088;28;20230;-38
2022/10/28 03:29:41;;;;;;;6.80;3.40;;;19.50;99.90;;;;;;5093409;28;20180;-41
2022/10/28 03:32:07;;;;;;;6.73;3.40;;;19.50;99.90;;;;;;5093793;28;20533;-38
2022/10/28 03:34:32;;;;;;;9.90;4.63;;;19.50;99.90;;;;;;5093861;28;20590;-38
2022/10/28 03:36:58;;;;;;;11.23;3.57;;;19.50;99.90;;;;;;5093864;28;20176;-38
2022/10/28 03:39:23;;;;;;;16.67;4.00;;;19.50;99.90;;;;;;5093577;28;20176;-39
2022/10/28 03:41:49;;;;;;;10.83;3.93;;;19.40;99.90;;;;;;5093611;28;20677;-38
2022/10/28 03:44:15;;;;;;;9.17;3.80;;;19.40;99.90;;;;;;5093430;28;20193;-38
2022/10/28 03:46:40;;;;;;;8.53;3.80;;;19.40;99.90;;;;;;5093602;28;20195;-38
2022/10/28 03:49:06;;;;;;;10.07;4.10;;;19.40;99.90;;;;;;5093391;28;20172;-37
2022/10/28 03:51:32;;;;;;;6.77;3.50;;;19.40;99.90;;;;;;5093644;28;20211;-38
2022/10/28 03:53:57;;;;;;;8.20;3.70;;;19.50;99.90;;;;;;5093216;28;20177;-38
2022/10/28 03:56:23;;;;;;;8.13;4.00;;;19.50;99.90;;;;;;5093670;28;20177;-39
2022/10/28 03:58:49;;;;;;;8.17;4.17;;;19.50;99.90;;;;;;5092875;28;20620;-40
2022/10/28 04:01:15;;;;;;;11.37;4.17;;;19.40;99.90;;;;;;5093376;28;20184;-38
2022/10/28 04:03:40;;;;;;;10.20;3.93;;;19.40;99.90;;;;;;5093087;28;20406;-38
2022/10/28 04:06:08;;;;;;;5.47;3.40;;;19.50;99.90;;;;;;5093378;28;20196;-38
2022/10/28 04:08:35;;;;;;;5.63;3.83;;;19.40;99.90;;;;;;5092841;28;20547;-38
2022/10/28 04:11:01;;;;;;;7.87;3.63;;;19.40;99.90;;;;;;5093229;28;20452;-40
2022/10/28 04:13:26;;;;;;;6.77;3.87;;;19.40;99.90;;;;;;5092615;28;20398;-38
2022/10/28 04:15:52;;;;;;;7.30;3.53;;;19.30;99.90;;;;;;5093193;28;20402;-41
2022/10/28 04:18:17;;;;;;;8.10;4.20;;;19.30;99.90;;;;;;5092967;28;20656;-39
2022/10/28 04:20:44;;;;;;;6.23;3.70;;;19.30;99.90;;;;;;5092631;28;20181;-38
2022/10/28 04:23:14;;;;;;;6.70;3.70;;;19.20;99.90;;;;;;5092729;28;20179;-38
2022/10/28 04:25:40;;;;;;;6.90;4.03;;;19.20;99.90;;;;;;5092832;28;20413;-40
2022/10/28 04:28:06;;;;;;;8.30;4.00;;;19.20;99.90;;;;;;5091513;28;20415;-38
2022/10/28 04:30:31;;;;;;;8.03;4.50;;;19.20;99.90;;;;;;5092071;28;20272;-38
2022/10/28 04:32:57;;;;;;;8.50;4.10;;;19.20;99.90;;;;;;5092605;28;20275;-39
2022/10/28 04:35:23;;;;;;;7.67;3.60;;;19.10;99.90;;;;;;5091411;28;20634;-38
2022/10/28 04:37:49;;;;;;;10.23;4.33;;;19.10;99.90;;;;;;5092790;28;20244;-38
2022/10/28 04:40:14;;;;;;;5.07;4.57;;;19.10;99.90;;;;;;5092198;28;20403;-38
2022/10/28 04:42:40;;;;;;;11.00;4.00;;;19.10;99.90;;;;;;5092245;28;20177;-38
2022/10/28 04:45:07;;;;;;;15.40;4.60;;;19.10;99.90;;;;;;5092355;28;20415;-38
2022/10/28 04:47:32;;;;;;;7.93;4.00;;;19.10;99.90;;;;;;5092757;28;20184;-39
2022/10/28 04:49:58;;;;;;;10.40;4.00;;;19.10;99.90;;;;;;5090660;28;20917;-38
2022/10/28 04:52:23;;;;;;;12.00;3.90;;;19.10;99.90;;;;;;5092333;28;20203;-38
2022/10/28 04:54:49;;;;;;;4.70;3.60;;;19.10;99.90;;;;;;5092084;28;20187;-38
2022/10/28 04:57:15;;;;;;;9.10;4.27;;;19.10;99.90;;;;;;5090929;28;20247;-38
2022/10/28 04:59:40;;;;;;;7.10;3.87;;;19.20;99.90;;;;;;5091791;28;20176;-39
2022/10/28 05:02:06;;;;;;;8.47;3.87;;;19.10;99.90;;;;;;5092489;28;20246;-38
2022/10/28 05:04:32;;;;;;;7.10;3.40;;;19.10;99.90;;;;;;5091845;28;20195;-38
2022/10/28 05:06:57;;;;;;;7.50;4.67;;;19.10;99.90;;;;;;5092052;28;20224;-39
2022/10/28 05:09:23;;;;;;;12.20;3.93;;;19.20;99.90;;;;;;5090326;28;20279;-39
2022/10/28 05:11:48;;;;;;;9.20;4.20;;;19.10;99.90;;;;;;5091652;28;20287;-39
2022/10/28 05:14:14;;;;;;;9.80;3.97;;;19.10;99.90;;;;;;5091935;28;20188;-38
2022/10/28 05:16:40;;;;;;;9.77;4.20;;;19.10;99.90;;;;;;5091929;28;20180;-38
2022/10/28 05:19:05;;;;;;;8.90;4.20;;;19.10;99.90;;;;;;5091691;28;20214;-38
2022/10/28 05:21:31;;;;;;;11.70;4.50;;;19.10;99.90;;;;;;5091556;28;20646;-40
2022/10/28 05:23:57;;;;;;;11.40;4.47;;;19.10;99.90;;;;;;5091596;28;20646;-38
2022/10/28 05:26:22;;;;;;;9.43;4.23;;;19.10;99.90;;;;;;5091583;28;20185;-38
2022/10/28 05:28:49;;;;;;;9.40;4.27;;;19.20;99.90;;;;;;5091304;28;20263;-37
2022/10/28 05:31:15;;;;;;;10.40;3.80;;;19.20;99.90;;;;;;5091326;28;20295;-38
2022/10/28 05:33:41;;;;;;;14.33;4.20;;;19.10;99.90;;;;;;5091466;28;20418;-39
2022/10/28 05:36:07;;;;;;;9.60;4.03;;;19.10;99.90;;;;;;5091386;28;20399;-39
2022/10/28 05:38:33;;;;;;;8.90;4.70;;;19.20;99.90;;;;;;5091201;28;20204;-38
2022/10/28 05:40:59;;;;;;;12.00;4.53;;;19.10;99.90;;;;;;5090464;28;20231;-38
2022/10/28 05:43:24;;;;;;;8.23;4.07;;;19.10;99.90;;;;;;5091224;28;20905;-38
2022/10/28 05:45:54;;;;;;;10.43;4.20;;;19.10;99.90;;;;;;5091432;28;20177;-37
2022/10/28 05:48:20;;;;;;;10.97;4.60;;;19.10;99.90;;;;;;5091344;28;20268;-37
2022/10/28 05:50:46;;;;;;;7.83;3.80;;;19.10;99.90;;;;;;5090848;28;20493;-38
2022/10/28 05:53:12;;;;;;;10.13;4.10;;;19.00;99.90;;;;;;5090930;28;20173;-39
2022/10/28 05:55:37;;;;;;;9.30;3.80;;;19.00;99.90;;;;;;5089381;28;20192;-38
2022/10/28 05:58:03;;;;;;;9.20;4.83;;;19.00;99.90;;;;;;5091087;28;20172;-38
2022/10/28 06:00:29;;;;;;;14.57;4.67;;;19.00;99.90;;;;;;5090809;28;20263;-38
2022/10/28 06:03:20;;;;;;;9.90;4.40;;;19.00;99.90;;;;;;5090742;28;20582;-38
2022/10/28 06:05:46;;;;;;;13.93;4.27;;;18.90;99.90;;;;;;5088622;28;20519;-38
2022/10/28 06:08:12;;;;;;;11.03;4.20;;;19.00;99.90;;;;;;5091151;28;20407;-39
2022/10/28 06:10:39;;;;;;;10.77;4.77;;;19.00;99.90;;;;;;5090614;28;20172;-37
2022/10/28 06:13:04;;;;;;;7.87;4.53;;;18.90;99.90;;;;;;5090556;28;20552;-38
2022/10/28 06:15:30;;;;;;;10.70;4.37;;;19.00;99.90;;;;;;5090876;28;20502;-39
2022/10/28 06:17:56;;;;;;;11.30;4.17;;;18.90;99.90;;;;;;5090760;28;20176;-38
2022/10/28 06:20:22;;;;;;;10.57;4.30;;;18.90;99.90;;;;;;5090222;28;20480;-37
2022/10/28 06:22:55;;;;;;;7.50;4.37;;;18.90;99.90;;;;;;5090424;28;20246;-38
2022/10/28 06:25:22;;;;;;;7.50;4.90;;;18.90;99.90;;;;;;5090860;28;20187;-38
2022/10/28 06:27:58;;;;;;;8.27;4.03;;;18.90;99.90;;;;;;5090774;28;20433;-39
2022/10/28 06:30:27;;;;;;;11.80;4.50;;;18.90;99.90;;;;;;5090189;28;20410;-40
2022/10/28 06:32:55;;;;;;;10.03;4.50;;;18.90;99.90;;;;;;5090024;28;20866;-38
2022/10/28 06:35:21;;;;;;;11.13;4.87;;;18.90;99.90;;;;;;5090653;28;20426;-38
2022/10/28 06:37:46;;;;;;;8.63;4.60;;;18.90;99.90;;;;;;5090622;28;20411;-39
2022/10/28 06:40:12;;;;;;;7.00;4.00;;;18.90;99.90;;;;;;5089884;28;20192;-38
2022/10/28 06:42:37;;;;;;;10.77;5.50;;;18.90;99.90;;;;;;5090248;28;20270;-38
2022/10/28 06:45:04;;;;;;;6.10;3.50;;;18.90;99.90;;;;;;5090235;28;20546;-38
2022/10/28 06:47:29;;;;;;;8.20;4.00;;;18.90;99.90;;;;;;5090396;28;20267;-37
2022/10/28 06:49:55;;;;;;;17.77;5.70;;;18.90;99.90;;;;;;5089859;28;20525;-37
2022/10/28 06:52:20;;;;;;;7.80;4.17;;;18.90;99.90;;;;;;5089977;28;20208;-37
2022/10/28 06:54:46;;;;;;;12.20;4.47;;;18.90;99.90;;;;;;5090106;28;20172;-41
2022/10/28 06:57:12;;;;;;;8.93;4.53;;;18.90;99.90;;;;;;5088671;28;20202;-38
2022/10/28 06:59:37;;;;;;;9.07;4.97;;;18.90;99.90;;;;;;5089651;28;20184;-38
2022/10/28 07:02:03;;;;;;;12.10;4.57;;;18.90;99.90;;;;;;5089996;28;20577;-38
2022/10/28 07:04:29;;;;;;;12.00;5.10;;;18.90;99.90;;;;;;5089769;28;20846;-38
2022/10/28 07:06:56;;;;;;;12.40;4.63;;;18.90;99.90;;;;;;5090158;28;20459;-38
2022/10/28 07:09:21;;;;;;;7.53;3.67;;;18.90;99.90;;;;;;5089759;28;20204;-38
2022/10/28 07:11:48;;;;;;;12.20;4.80;;;18.90;99.90;;;;;;5089868;28;20615;-38
2022/10/28 07:14:13;;;;;;;9.93;4.07;;;19.00;99.90;;;;;;5089926;28;20168;-38
2022/10/28 07:16:40;;;;;;;19.53;5.03;;;18.90;99.90;;;;;;5089560;28;20414;-37
2022/10/28 07:19:06;;;;;;;10.53;4.50;;;18.90;99.90;;;;;;5089605;28;20609;-37
2022/10/28 07:21:32;;;;;;;8.30;4.50;;;18.90;99.90;;;;;;5088291;28;20457;-37
2022/10/28 07:23:58;;;;;;;9.13;5.00;;;19.00;99.90;;;;;;5089708;28;20430;-38
2022/10/28 07:26:24;;;;;;;8.93;4.87;;;19.00;99.90;;;;;;5089834;28;20176;-37
2022/10/28 07:28:49;;;;;;;9.63;4.50;;;19.10;99.90;;;;;;5089653;28;20665;-38
2022/10/28 07:31:15;;;;;;;6.07;4.00;;;19.10;99.90;;;;;;5089473;28;20208;-40
2022/10/28 07:33:41;;;;;;;11.37;5.20;;;19.20;99.90;;;;;;5089694;28;20191;-38
2022/10/28 07:36:07;;;;;;;6.27;3.87;;;19.20;99.90;;;;;;5089751;28;20395;-39
2022/10/28 07:38:33;;;;;;;10.10;5.60;;;19.20;99.90;;;;;;5089729;28;20414;-38
2022/10/28 07:41:04;;;;;;;7.73;4.87;;;19.30;99.90;;;;;;5089895;28;20919;-37
2022/10/28 07:43:30;;;;;;;8.70;5.10;;;19.30;99.90;;;;;;5089639;28;20199;-38
2022/10/28 07:45:58;;;;;;;10.57;4.40;;;19.30;99.90;;;;;;5089644;28;20418;-38
2022/10/28 07:48:24;;;;;;;5.47;4.90;;;19.30;99.90;;;;;;5089388;28;20175;-38
2022/10/28 07:50:50;;;;;;;9.57;4.60;;;19.40;99.90;;;;;;5089826;28;20493;-38
2022/10/28 07:53:16;;;;;;;7.30;4.70;;;19.60;99.90;;;;;;5089347;28;20183;-39
2022/10/28 07:55:42;;;;;;;7.87;4.60;;;19.70;99.90;;;;;;5069557;28;20195;-38
2022/10/28 07:58:08;;;;;;;7.60;4.53;;;19.70;99.90;;;;;;5071491;28;20406;-38
2022/10/28 08:00:34;;;;;;;10.13;4.60;;;19.80;99.90;;;;;;5071223;28;20204;-40
2022/10/28 08:03:01;;;;;;;12.40;4.77;;;19.80;99.90;;;;;;5089257;28;21051;-39
2022/10/28 08:05:27;;;;;;;10.30;4.67;;;19.90;99.90;;;;;;5091771;28;20257;-39
2022/10/28 08:07:52;;;;;;;7.87;4.73;;;19.90;99.90;;;;;;5093116;28;20458;-38
2022/10/28 08:10:18;;;;;;;9.87;4.97;;;19.90;99.90;;;;;;5092924;28;20242;-38
2022/10/28 08:12:45;;;;;;;7.90;4.10;;;19.90;99.90;;;;;;5092866;28;20921;-40
2022/10/28 08:15:11;;;;;;;7.37;4.63;;;19.80;99.90;;;;;;5093009;28;20188;-39
2022/10/28 08:17:37;;;;;;;8.10;4.70;;;19.90;99.90;;;;;;5093281;28;20446;-39
2022/10/28 08:20:04;;;;;;;14.83;4.97;;;19.90;99.90;;;;;;5092618;28;20449;-39
2022/10/28 08:22:30;;;;;;;7.33;4.57;;;19.90;99.90;;;;;;5092961;28;20617;-38
2022/10/28 08:24:56;;;;;;;12.47;5.20;;;20.10;99.90;;;;;;5092881;28;20518;-40
2022/10/28 08:27:21;;;;;;;10.67;4.60;;;20.10;99.90;;;;;;5092846;28;20655;-38
2022/10/28 08:29:47;;;;;;;9.40;5.20;;;20.20;99.90;;;;;;5092355;28;20185;-39
2022/10/28 08:32:13;;;;;;;10.67;5.17;;;20.20;99.90;;;;;;5092925;28;20251;-38
2022/10/28 08:34:38;;;;;;;10.80;4.07;;;20.20;99.90;;;;;;5092488;28;20715;-39
2022/10/28 08:37:04;;;;;;;8.93;4.00;;;20.20;99.90;;;;;;5092771;28;20264;-38
2022/10/28 08:39:29;;;;;;;8.50;5.17;;;20.30;99.90;;;;;;5092303;28;20177;-41
2022/10/28 08:42:24;;;;;;;11.60;4.80;;;20.30;99.90;;;;;;5092479;28;20188;-40
2022/10/28 08:45:20;;;;;;;13.77;5.03;;;20.30;99.90;;;;;;5092518;28;20196;-40
2022/10/28 08:48:11;;;;;;;6.40;4.50;;;20.30;99.90;;;;;;5092603;28;20434;-38
2022/10/28 08:50:50;;;;;;;11.90;3.60;;;20.30;99.90;;;;;;5092088;28;20418;-38
2022/10/28 08:53:24;;;;;;;14.90;5.07;;;20.30;99.90;;;;;;5092185;28;20419;-38
2022/10/28 08:55:52;;;;;;;7.30;4.70;;;20.30;99.90;;;;;;5090767;28;20407;-38
2022/10/28 08:58:29;;;;;;;12.60;5.07;;;20.40;99.90;;;;;;5092454;28;20814;-38
2022/10/28 09:00:58;;;;;;;8.47;4.57;;;20.50;99.90;;;;;;5092045;28;20410;-38
2022/10/28 09:03:52;;;;;;;8.67;4.40;;;20.50;99.90;;;;;;5091993;28;20461;-41
2022/10/28 09:06:17;;;;;;;11.47;4.23;;;20.70;99.90;;;;;;5088837;28;20442;-38
2022/10/28 09:08:47;;;;;;;8.20;4.70;;;20.80;99.90;;;;;;5091890;28;20760;-39
2022/10/28 09:11:54;;;;;;;10.20;4.30;;;21.00;99.90;;;;;;5091734;28;20232;-38
2022/10/28 09:14:22;;;;;;;9.93;4.47;;;21.20;99.90;;;;;;5091805;28;20414;-38
2022/10/28 09:16:57;;;;;;;8.77;4.50;;;21.40;99.90;;;;;;5091736;28;20906;-40
2022/10/28 09:19:46;;;;;;;13.33;4.60;;;21.50;99.90;;;;;;5091712;28;20879;-39
2022/10/28 09:22:35;;;;;;;11.27;4.40;;;21.60;99.90;;;;;;5071628;28;20438;-39
2022/10/28 09:25:05;;;;;;;12.03;4.67;;;21.70;99.90;;;;;;5071854;28;20404;-39
2022/10/28 09:27:46;;;;;;;9.60;4.20;;;21.60;99.90;;;;;;5071532;28;20415;-38
2022/10/28 09:30:51;;;;;;;6.70;4.53;;;21.80;99.90;;;;;;5071013;28;20941;-38
2022/10/28 09:33:34;;;;;;;8.90;4.67;;;21.80;99.90;;;;;;5070467;28;20475;-37
2022/10/28 09:36:02;;;;;;;12.93;4.57;;;22.00;99.90;;;;;;5071315;28;20749;-38
2022/10/28 09:38:38;;;;;;;7.70;4.60;;;22.10;99.90;;;;;;5070873;28;20905;-39
2022/10/28 09:41:21;;;;;;;9.20;4.13;;;22.20;99.90;;;;;;5071186;28;20446;-40
2022/10/28 09:44:12;;;;;;;12.47;4.47;;;22.40;99.90;;;;;;5071086;28;20518;-41
2022/10/28 09:46:39;;;;;;;10.00;4.60;;;22.50;99.90;;;;;;5070901;28;20419;-38
2022/10/28 09:49:11;;;;;;;11.83;5.40;;;22.60;99.90;;;;;;5070829;28;20415;-39
2022/10/28 09:51:37;;;;;;;9.80;4.27;;;22.80;99.90;;;;;;5070986;28;20997;-40
2022/10/28 09:54:03;;;;;;;6.83;4.17;;;22.90;99.90;;;;;;5070806;28;20403;-43
2022/10/28 09:56:29;;;;;;;6.97;3.90;;;23.00;99.90;;;;;;5070110;28;20814;-39
2022/10/28 09:58:58;;;;;;;9.60;4.63;;;23.10;99.90;;;;;;5070457;28;20395;-38
2022/10/28 10:01:26;;;;;;;13.30;4.60;;;23.10;99.90;;;;;;5070637;28;20440;-38
2022/10/28 10:03:51;;;;;;;11.47;4.20;;;23.20;99.90;;;;;;5070669;28;20420;-39
2022/10/28 10:06:23;;;;;;;7.33;4.33;;;23.20;99.90;;;;;;5070588;28;20442;-39
2022/10/28 10:08:49;;;;;;;11.60;4.60;;;23.20;99.90;;;;;;5070365;28;20201;-40
2022/10/28 10:11:47;;;;;;;8.73;3.90;;;23.10;99.90;;;;;;5070653;28;20494;-38
2022/10/28 10:14:22;;;;;;;12.43;4.40;;;23.00;99.90;;;;;;5026117;28;20232;-40
2022/10/28 10:16:58;;;;;;;7.93;3.70;;;22.90;99.90;;;;;;5070696;28;20411;-39
2022/10/28 10:19:24;;;;;;;7.10;3.90;;;22.80;99.90;;;;;;5070285;28;20415;-39
2022/10/28 10:21:53;;;;;;;14.47;4.60;;;22.70;99.90;;;;;;5087685;28;20471;-39
2022/10/28 10:24:29;;;;;;;14.20;4.90;;;22.70;99.90;;;;;;5090194;28;20576;-38
2022/10/28 10:26:56;;;;;;;11.03;4.70;;;22.70;99.90;;;;;;5090464;28;20425;-39
2022/10/28 10:29:23;;;;;;;8.53;4.20;;;22.70;99.90;;;;;;5090160;28;20419;-39
2022/10/28 10:32:14;;;;;;;10.20;4.50;;;22.70;99.90;;;;;;5090535;28;20454;-38
2022/10/28 10:34:53;;;;;;;11.77;4.57;;;22.60;99.90;;;;;;5090143;28;20896;-38
2022/10/28 10:37:21;;;;;;;10.07;4.47;;;22.60;99.90;;;;;;5090599;28;20412;-40
2022/10/28 10:40:17;;;;;;;11.23;3.93;;;22.60;99.90;;;;;;5088862;28;20420;-40
2022/10/28 10:42:42;;;;;;;11.40;4.57;;;22.60;99.90;;;;;;5085490;28;20420;-38
2022/10/28 10:45:18;;;;;;;5.80;3.80;;;22.60;99.90;;;;;;5090230;28;20418;-38
2022/10/28 10:47:44;;;;;;;11.83;5.00;;;22.60;99.90;;;;;;5090450;28;20265;-38
2022/10/28 10:50:30;;;;;;;11.70;4.20;;;22.60;99.90;;;;;;5089847;28;20460;-39
2022/10/28 10:52:59;;;;;;;12.07;4.27;;;22.60;99.90;;;;;;5090003;28;20252;-39
2022/10/28 10:55:39;;;;;;;17.53;5.00;;;22.60;99.90;;;;;;5088717;28;20442;-40
2022/10/28 10:58:14;;;;;;;12.50;4.30;;;22.60;99.90;;;;;;5090555;28;20843;-39
2022/10/28 11:00:47;;;;;;;7.70;4.07;;;22.60;99.90;;;;;;5089733;28;20503;-40
2022/10/28 11:03:30;;;;;;;11.43;4.50;;;22.50;99.90;;;;;;5089995;28;20437;-40
2022/10/28 11:05:58;;;;;;;8.33;4.67;;;22.60;99.90;;;;;;5089618;28;20430;-39
2022/10/28 11:08:33;;;;;;;11.20;5.00;;;22.60;99.90;;;;;;5089865;28;20502;-40
2022/10/28 11:11:03;;;;;;;17.53;5.70;;;22.60;99.90;;;;;;5089891;28;20440;-38
2022/10/28 11:13:30;;;;;;;11.87;5.47;;;22.70;99.90;;;;;;5089939;28;20407;-38
2022/10/28 11:16:00;;;;;;;13.80;4.17;;;22.70;99.90;;;;;;5089893;28;20410;-38
2022/10/28 11:18:28;;;;;;;9.50;3.70;;;22.80;99.90;;;;;;5089427;28;20410;-39
2022/10/28 11:21:12;;;;;;;12.20;3.70;;;22.90;99.90;;;;;;5088554;28;20483;-38
2022/10/28 11:23:57;;;;;;;10.60;4.57;;;22.90;99.90;;;;;;5089776;28;20791;-38
2022/10/28 11:26:23;;;;;;;10.70;4.50;;;23.00;99.90;;;;;;5089783;28;20467;-42
2022/10/28 11:29:09;;;;;;;18.03;4.40;;;23.00;99.90;;;;;;5089440;28;20768;-40
2022/10/28 11:31:37;;;;;;;8.90;3.80;;;23.10;99.90;;;;;;5088351;28;20486;-38
2022/10/28 11:34:18;;;;;;;8.37;3.60;;;23.20;99.90;;;;;;5089766;28;20411;-38
2022/10/28 11:36:47;;;;;;;8.77;4.23;;;23.40;99.90;;;;;;5089833;28;21100;-43
2022/10/28 11:39:31;;;;;;;17.83;5.00;;;23.50;99.90;;;;;;5089580;28;20410;-38
2022/10/28 11:42:14;;;;;;;13.83;4.27;;;23.60;99.90;;;;;;5093711;28;20981;-39
2022/10/28 11:45:04;;;;;;;11.37;4.20;;;23.60;99.90;;;;;;5092364;28;20406;-38
2022/10/28 11:47:32;;;;;;;11.53;4.50;;;23.70;99.90;;;;;;5093468;28;20414;-39
2022/10/28 11:50:22;;;;;;;8.77;4.37;;;23.70;99.90;;;;;;5093621;28;20421;-39
2022/10/28 11:53:09;;;;;;;7.40;3.63;;;23.70;99.90;;;;;;5093241;28;20464;-39
2022/10/28 11:55:52;;;;;;;8.50;4.20;;;23.70;99.90;;;;;;5092724;28;20418;-41
2022/10/28 11:58:45;;;;;;;11.87;4.40;;;23.80;99.90;;;;;;5093483;28;20402;-38
2022/10/28 12:01:38;;;;;;;14.33;4.70;;;23.80;99.90;;;;;;5093554;28;20421;-38
2022/10/28 12:04:18;;;;;;;9.37;3.60;;;23.80;99.90;;;;;;5092981;28;20415;-43
2022/10/28 12:07:04;;;;;;;9.63;3.53;;;23.80;99.90;;;;;;5093403;28;20453;-38
2022/10/28 12:09:57;;;;;;;8.60;4.63;;;23.80;99.90;;;;;;5093038;28;20497;-42
2022/10/28 12:12:28;;;;;;;12.40;4.30;;;23.80;99.90;;;;;;5092814;28;20849;-41
2022/10/28 12:14:54;;;;;;;9.00;4.30;;;23.90;99.90;;;;;;5093464;28;20842;-39
2022/10/28 12:17:40;;;;;;;10.33;4.03;;;23.90;99.90;;;;;;5093350;28;20442;-39
2022/10/28 12:20:31;;;;;;;8.40;3.90;;;24.00;99.90;;;;;;5092717;28;20238;-38
2022/10/28 12:23:01;;;;;;;10.57;5.37;;;24.10;99.90;;;;;;5092645;28;20411;-38
2022/10/28 12:25:31;;;;;;;11.13;4.20;;;24.10;99.90;;;;;;5093310;28;20425;-40
2022/10/28 12:28:01;;;;;;;9.90;4.57;;;24.10;99.90;;;;;;5092973;28;20503;-38
2022/10/28 12:30:34;;;;;;;12.87;4.43;;;24.20;99.90;;;;;;5092838;28;20990;-40
2022/10/28 12:33:23;;;;;;;8.00;4.60;;;24.20;99.90;;;;;;5092718;28;20458;-38
2022/10/28 12:35:55;;;;;;;10.63;4.20;;;24.30;99.90;;;;;;5093038;28;20501;-39
2022/10/28 12:38:39;;;;;;;12.00;4.70;;;24.30;99.80;;;;;;5092950;28;20411;-39
2022/10/28 12:41:17;;;;;;;12.47;4.43;;;24.30;99.70;;;;;;5092854;28;20734;-38
2022/10/28 12:43:54;;;;;;;13.00;4.03;;;24.30;99.90;;;;;;5092203;28;20497;-38
2022/10/28 12:46:53;;;;;;;12.00;3.90;;;24.20;99.50;;;;;;5092807;28;20943;-41
2022/10/28 12:49:31;;;;;;;8.10;4.60;;;24.30;99.90;;;;;;5092067;28;20407;-40
2022/10/28 12:52:01;;;;;;;5.33;3.57;;;24.20;99.90;;;;;;5091983;28;20461;-40
2022/10/28 12:54:42;;;;;;;9.23;3.70;;;24.20;99.70;;;;;;5092060;28;20454;-40
2022/10/28 12:57:12;;;;;;;9.30;3.80;;;24.10;99.80;;;;;;5091662;28;20410;-38
2022/10/28 12:59:46;;;;;;;14.50;4.20;;;24.10;99.90;;;;;;5092081;28;20904;-39
2022/10/28 13:02:24;;;;;;;12.50;4.57;;;24.10;99.80;;;;;;5092471;28;20414;-42
2022/10/28 13:04:50;;;;;;;14.70;4.93;;;24.10;99.90;;;;;;5092024;28;20415;-40